Time;durP1;ratioP1;P1;durP2;ratioP2;P2;SDS_P1;SDS_P2;PMS_P1;PMS_P2;Temp;Humidity;BMP_temperature;BMP_pressure;BME280_temperature;BME280_humidity;BME280_pressure;Samples;Min_cycle;Max_cycle;Signal;HPM_P1;HPM_P2
2023/05/02 00:00:19;;;;;;;1.00;1.00;;;11.60;99.90;;;;;;5050135;28;20231;-62
2023/05/02 00:02:46;;;;;;;1.10;1.00;;;11.60;99.90;;;;;;5051301;28;20298;-65
2023/05/02 00:05:13;;;;;;;1.00;1.00;;;11.60;99.90;;;;;;5051116;28;20234;-62
2023/05/02 00:07:39;;;;;;;0.90;0.90;;;11.60;99.90;;;;;;5051486;28;20671;-63
2023/05/02 00:10:07;;;;;;;1.20;1.00;;;11.70;99.90;;;;;;5034859;28;20238;-63
2023/05/02 00:12:35;;;;;;;2.40;1.10;;;11.60;99.90;;;;;;5042134;28;20218;-65
2023/05/02 00:15:02;;;;;;;1.10;1.10;;;11.60;99.90;;;;;;5033089;28;20200;-65
2023/05/02 00:17:29;;;;;;;1.15;1.05;;;11.60;99.90;;;;;;5039291;28;20947;-64
2023/05/02 00:19:56;;;;;;;1.10;1.10;;;11.70;99.90;;;;;;5050243;28;20639;-65
2023/05/02 00:22:23;;;;;;;1.10;1.10;;;11.70;99.90;;;;;;5051117;28;20208;-64
2023/05/02 00:24:50;;;;;;;1.20;1.20;;;11.60;99.90;;;;;;5050898;28;20206;-65
2023/05/02 00:27:18;;;;;;;1.05;1.05;;;11.40;99.90;;;;;;5050413;28;20204;-65
2023/05/02 00:29:46;;;;;;;1.20;1.20;;;11.40;99.90;;;;;;5050338;28;20274;-63
2023/05/02 00:32:13;;;;;;;1.10;1.10;;;11.30;99.90;;;;;;5050972;28;20214;-64
2023/05/02 00:34:40;;;;;;;1.20;1.20;;;11.20;99.90;;;;;;5050495;28;20204;-65
2023/05/02 00:37:07;;;;;;;1.10;1.10;;;11.20;99.90;;;;;;5042229;28;20201;-63
2023/05/02 00:39:34;;;;;;;1.37;1.20;;;11.10;99.90;;;;;;5046675;28;20769;-63
2023/05/02 00:42:02;;;;;;;0.90;0.90;;;11.20;99.90;;;;;;5050656;28;20208;-64
2023/05/02 00:44:28;;;;;;;1.30;1.20;;;11.20;99.90;;;;;;5050344;28;20203;-63
2023/05/02 00:46:57;;;;;;;1.30;1.20;;;11.30;99.90;;;;;;5050256;28;20674;-63
2023/05/02 00:49:24;;;;;;;1.10;1.10;;;11.20;99.90;;;;;;5049469;28;20219;-64
2023/05/02 00:51:50;;;;;;;1.00;1.00;;;11.30;99.90;;;;;;5050280;28;20577;-65
2023/05/02 00:54:17;;;;;;;0.90;0.90;;;11.30;99.90;;;;;;5050173;28;20285;-63
2023/05/02 00:56:44;;;;;;;1.00;1.00;;;11.20;99.90;;;;;;5050361;28;20204;-62
2023/05/02 00:59:12;;;;;;;1.10;1.10;;;11.30;99.90;;;;;;5049690;28;20231;-64
2023/05/02 01:01:47;;;;;;;1.13;1.13;;;11.30;99.90;;;;;;5049538;28;20250;-66
2023/05/02 01:04:28;;;;;;;1.55;1.40;;;11.40;99.90;;;;;;5049904;28;20208;-66
2023/05/02 01:07:07;;;;;;;1.20;1.20;;;11.30;99.90;;;;;;5050170;28;20718;-64
2023/05/02 01:09:47;;;;;;;0.90;0.90;;;11.40;99.90;;;;;;5049246;28;20794;-63
2023/05/02 01:12:20;;;;;;;1.00;1.00;;;11.30;99.90;;;;;;5050446;28;20202;-63
2023/05/02 01:14:53;;;;;;;1.00;1.00;;;11.40;99.90;;;;;;5050288;28;20553;-62
2023/05/02 01:17:22;;;;;;;0.98;0.98;;;11.40;99.90;;;;;;5047630;28;20204;-63
2023/05/02 01:19:54;;;;;;;1.10;1.10;;;11.50;99.90;;;;;;5040528;28;20230;-62
2023/05/02 01:22:24;;;;;;;1.00;1.00;;;11.50;99.90;;;;;;5049872;28;20195;-63
2023/05/02 01:24:59;;;;;;;1.00;1.00;;;11.60;99.90;;;;;;5050106;28;20208;-61
2023/05/02 01:27:36;;;;;;;1.00;1.00;;;11.60;99.90;;;;;;5050164;28;20191;-62
2023/05/02 01:30:08;;;;;;;1.10;1.10;;;11.70;99.90;;;;;;5049421;28;20596;-62
2023/05/02 01:32:37;;;;;;;1.00;1.00;;;11.70;99.90;;;;;;5049593;28;20669;-62
2023/05/02 01:35:06;;;;;;;1.10;1.10;;;11.70;99.90;;;;;;5049720;28;20294;-64
2023/05/02 01:37:35;;;;;;;1.38;1.00;;;11.70;99.90;;;;;;5049525;28;20222;-64
2023/05/02 01:40:04;;;;;;;1.10;1.10;;;11.80;99.90;;;;;;5049023;28;20227;-63
2023/05/02 01:42:32;;;;;;;1.10;1.10;;;11.70;99.90;;;;;;5048208;28;20298;-64
2023/05/02 01:45:02;;;;;;;0.95;0.95;;;11.70;99.90;;;;;;5050903;28;20208;-66
2023/05/02 01:47:34;;;;;;;1.20;1.20;;;11.70;99.90;;;;;;5043703;28;20231;-64
2023/05/02 01:50:03;;;;;;;1.30;1.20;;;11.60;99.90;;;;;;5041709;28;20219;-64
2023/05/02 01:52:30;;;;;;;1.10;1.10;;;11.60;99.90;;;;;;5049651;28;20211;-63
2023/05/02 01:54:59;;;;;;;0.90;0.90;;;11.50;99.90;;;;;;5044069;28;20208;-64
2023/05/02 01:57:26;;;;;;;1.17;1.07;;;11.50;99.90;;;;;;5049647;28;20698;-65
2023/05/02 01:59:56;;;;;;;1.00;1.00;;;11.40;99.90;;;;;;5046600;28;20228;-65
2023/05/02 02:02:25;;;;;;;1.10;1.10;;;11.40;99.90;;;;;;5029607;28;20204;-62
2023/05/02 02:04:54;;;;;;;1.00;1.00;;;11.30;99.90;;;;;;5029099;28;20295;-62
2023/05/02 02:07:21;;;;;;;1.10;1.10;;;11.40;99.90;;;;;;5029787;28;20204;-63
2023/05/02 02:09:48;;;;;;;1.30;1.30;;;11.30;99.90;;;;;;5028859;28;20319;-62
2023/05/02 02:12:23;;;;;;;1.30;1.20;;;11.30;99.90;;;;;;5029408;28;20200;-63
2023/05/02 02:14:56;;;;;;;1.10;1.00;;;11.30;99.90;;;;;;5031375;28;20180;-62
2023/05/02 02:17:27;;;;;;;1.10;1.10;;;11.40;99.90;;;;;;5039919;28;20203;-62
2023/05/02 02:20:01;;;;;;;1.00;1.00;;;11.40;99.90;;;;;;5039351;28;20220;-63
2023/05/02 02:22:28;;;;;;;1.00;1.00;;;11.40;99.90;;;;;;5041578;28;20204;-62
2023/05/02 02:24:57;;;;;;;1.10;1.10;;;11.40;99.90;;;;;;5042124;28;20200;-63
2023/05/02 02:27:23;;;;;;;1.10;1.10;;;11.40;99.90;;;;;;5037305;28;20212;-62
2023/05/02 02:29:50;;;;;;;1.10;1.10;;;11.30;99.90;;;;;;5043486;28;20215;-63
2023/05/02 02:32:17;;;;;;;1.10;1.10;;;11.30;99.90;;;;;;5053127;28;20226;-61
2023/05/02 02:34:44;;;;;;;1.50;1.05;;;11.30;99.90;;;;;;5052984;28;20273;-63
2023/05/02 02:37:17;;;;;;;1.00;1.00;;;11.30;99.90;;;;;;5053226;28;20200;-63
2023/05/02 02:40:04;;;;;;;1.02;1.00;;;11.30;99.90;;;;;;5051861;28;20608;-62
2023/05/02 02:42:39;;;;;;;1.00;1.00;;;11.50;99.90;;;;;;5053162;28;20207;-63
2023/05/02 02:45:16;;;;;;;1.08;1.05;;;11.30;99.90;;;;;;5052972;28;20204;-62
2023/05/02 02:47:49;;;;;;;1.05;1.05;;;11.30;99.90;;;;;;5049247;28;20709;-63
2023/05/02 02:50:22;;;;;;;1.40;1.30;;;11.10;99.90;;;;;;5047363;28;20720;-62
2023/05/02 02:52:54;;;;;;;0.90;0.90;;;11.20;99.90;;;;;;5054109;28;20192;-64
2023/05/02 02:55:34;;;;;;;1.10;1.10;;;11.20;99.90;;;;;;5054283;28;20207;-62
2023/05/02 02:58:09;;;;;;;1.20;1.20;;;11.10;99.90;;;;;;5053921;28;20210;-62
2023/05/02 03:00:36;;;;;;;1.10;1.10;;;11.10;99.90;;;;;;5051957;28;20227;-63
2023/05/02 03:03:05;;;;;;;1.00;1.00;;;11.00;99.90;;;;;;5052601;28;20239;-62
2023/05/02 03:05:33;;;;;;;1.20;1.20;;;11.00;99.90;;;;;;5053318;28;20631;-62
2023/05/02 03:08:01;;;;;;;1.00;1.00;;;11.00;99.90;;;;;;5050135;28;20203;-63
2023/05/02 03:10:28;;;;;;;1.23;1.13;;;11.00;99.90;;;;;;5039465;28;20220;-64
2023/05/02 03:12:55;;;;;;;1.00;1.00;;;11.10;99.90;;;;;;5032462;28;20209;-63
2023/05/02 03:16:17;;;;;;;1.00;1.00;;;11.10;99.90;;;;;;5032554;28;20204;-63
2023/05/02 03:18:44;;;;;;;0.90;0.90;;;11.20;99.90;;;;;;5032053;28;20223;-64
2023/05/02 03:21:11;;;;;;;1.17;1.10;;;11.20;99.90;;;;;;5031469;28;20221;-63
2023/05/02 03:23:39;;;;;;;1.10;1.10;;;11.20;99.90;;;;;;5032471;28;20206;-63
2023/05/02 03:26:06;;;;;;;1.00;1.00;;;11.20;99.90;;;;;;5032787;28;20208;-63
2023/05/02 03:28:32;;;;;;;1.02;1.02;;;11.30;99.90;;;;;;5032968;28;20208;-63
2023/05/02 03:30:59;;;;;;;1.38;1.30;;;11.30;99.90;;;;;;5039751;28;20315;-63
2023/05/02 03:33:26;;;;;;;1.48;1.08;;;11.30;99.90;;;;;;5035392;28;20299;-65
2023/05/02 03:35:53;;;;;;;1.00;1.00;;;11.30;99.90;;;;;;5034809;28;20733;-65
2023/05/02 03:38:20;;;;;;;1.30;1.10;;;11.30;99.90;;;;;;5035514;28;20215;-65
2023/05/02 03:40:48;;;;;;;1.10;1.10;;;11.30;99.90;;;;;;5030874;28;20247;-64
2023/05/02 03:43:15;;;;;;;1.43;1.33;;;11.30;99.90;;;;;;5034245;28;20268;-64
2023/05/02 03:45:42;;;;;;;0.90;0.90;;;11.30;99.90;;;;;;5033923;28;20204;-63
2023/05/02 03:48:09;;;;;;;1.00;1.00;;;11.30;99.90;;;;;;5031860;28;20205;-63
2023/05/02 03:50:36;;;;;;;1.27;0.95;;;11.20;99.90;;;;;;5031321;28;20601;-62
2023/05/02 03:53:02;;;;;;;1.10;1.10;;;11.20;99.90;;;;;;5031808;28;20263;-63
2023/05/02 03:55:29;;;;;;;1.02;1.02;;;11.20;99.90;;;;;;5040090;28;20213;-63
2023/05/02 03:57:57;;;;;;;2.15;1.15;;;11.10;99.90;;;;;;5052046;28;20208;-62
2023/05/02 04:00:24;;;;;;;1.20;1.10;;;11.10;99.90;;;;;;5048720;28;20223;-63
2023/05/02 04:02:51;;;;;;;1.08;1.08;;;11.00;99.90;;;;;;5052015;28;20196;-63
2023/05/02 04:05:18;;;;;;;1.00;1.00;;;10.90;99.90;;;;;;5051697;28;20203;-63
2023/05/02 04:07:44;;;;;;;1.25;1.25;;;10.90;99.90;;;;;;5051201;28;20214;-63
2023/05/02 04:10:15;;;;;;;1.10;1.10;;;10.90;99.90;;;;;;5050065;28;20567;-61
2023/05/02 04:12:42;;;;;;;1.20;1.20;;;10.90;99.90;;;;;;5050978;28;20204;-62
2023/05/02 04:15:11;;;;;;;1.00;1.00;;;10.80;99.90;;;;;;5051064;28;20200;-63
2023/05/02 04:17:38;;;;;;;1.00;1.00;;;10.80;99.90;;;;;;5050823;28;20696;-62
2023/05/02 04:20:06;;;;;;;1.10;1.10;;;10.80;99.90;;;;;;5050202;28;20232;-62
2023/05/02 04:22:33;;;;;;;1.00;1.00;;;10.70;99.90;;;;;;5050999;28;20208;-63
2023/05/02 04:25:00;;;;;;;1.20;1.20;;;10.70;99.90;;;;;;5050342;28;20212;-62
2023/05/02 04:27:27;;;;;;;1.05;1.05;;;10.60;99.90;;;;;;5050735;28;20203;-63
2023/05/02 04:29:54;;;;;;;1.10;1.10;;;10.60;99.90;;;;;;5049631;28;20255;-63
2023/05/02 04:32:22;;;;;;;1.10;1.10;;;10.50;99.90;;;;;;5049786;28;20275;-64
2023/05/02 04:34:49;;;;;;;1.20;1.20;;;10.60;99.90;;;;;;5051719;28;20200;-65
2023/05/02 04:37:16;;;;;;;1.05;1.05;;;10.60;99.90;;;;;;5031054;28;20205;-64
2023/05/02 04:39:43;;;;;;;0.90;0.90;;;10.60;99.90;;;;;;5030061;28;20302;-65
2023/05/02 04:42:10;;;;;;;0.90;0.90;;;10.60;99.90;;;;;;5042638;28;20230;-62
2023/05/02 04:44:37;;;;;;;1.00;1.00;;;10.70;99.90;;;;;;5051562;28;20291;-62
2023/05/02 04:47:04;;;;;;;1.10;1.00;;;10.70;99.90;;;;;;5050699;28;20218;-63
2023/05/02 04:49:32;;;;;;;1.13;1.13;;;10.80;99.90;;;;;;5050567;28;20228;-63
2023/05/02 04:51:59;;;;;;;1.00;1.00;;;10.80;99.90;;;;;;5038592;28;20612;-63
2023/05/02 04:54:26;;;;;;;0.80;0.80;;;10.90;99.90;;;;;;5031579;28;20285;-63
2023/05/02 04:56:53;;;;;;;1.10;1.10;;;10.90;99.90;;;;;;5031618;28;20228;-63
2023/05/02 04:59:20;;;;;;;2.13;1.30;;;11.00;99.90;;;;;;5036680;28;20238;-62
2023/05/02 05:01:47;;;;;;;1.13;1.10;;;10.90;99.90;;;;;;5043166;28;20226;-63
2023/05/02 05:04:14;;;;;;;1.13;1.13;;;11.00;99.90;;;;;;5038583;28;20215;-62
2023/05/02 05:06:42;;;;;;;1.00;1.00;;;11.00;99.90;;;;;;5047119;28;20204;-63
2023/05/02 05:09:08;;;;;;;1.10;1.10;;;10.90;99.90;;;;;;5041693;28;20232;-62
2023/05/02 05:11:37;;;;;;;1.15;1.10;;;11.00;99.90;;;;;;5047742;28;20718;-62
2023/05/02 05:14:04;;;;;;;1.00;1.00;;;11.00;99.90;;;;;;5043111;28;20686;-62
2023/05/02 05:16:31;;;;;;;1.10;1.10;;;10.90;99.90;;;;;;5047279;28;20207;-64
2023/05/02 05:18:57;;;;;;;1.02;1.02;;;10.90;99.90;;;;;;5049736;28;20273;-64
2023/05/02 05:21:24;;;;;;;1.43;1.33;;;10.90;99.90;;;;;;5048692;28;20224;-62
2023/05/02 05:23:52;;;;;;;1.10;1.10;;;11.00;99.90;;;;;;5034577;28;20200;-62
2023/05/02 05:26:19;;;;;;;1.20;1.20;;;10.90;99.90;;;;;;5031908;28;20200;-63
2023/05/02 05:28:46;;;;;;;1.10;1.10;;;10.90;99.90;;;;;;5035097;28;20295;-63
2023/05/02 05:31:15;;;;;;;1.10;1.10;;;10.90;99.90;;;;;;5031433;28;20205;-63
2023/05/02 05:33:43;;;;;;;1.10;1.10;;;11.00;99.90;;;;;;5037012;28;20205;-62
2023/05/02 05:36:11;;;;;;;1.10;1.10;;;11.00;99.90;;;;;;5038496;28;20251;-62
2023/05/02 05:38:39;;;;;;;1.10;1.10;;;11.10;99.90;;;;;;5034363;28;20201;-62
2023/05/02 05:41:07;;;;;;;1.23;1.20;;;11.20;99.90;;;;;;5029202;28;20224;-61
2023/05/02 05:43:35;;;;;;;1.08;1.08;;;11.30;99.90;;;;;;5031621;28;20296;-62
2023/05/02 05:46:01;;;;;;;1.17;1.17;;;11.40;99.90;;;;;;5030801;28;20580;-62
2023/05/02 05:48:28;;;;;;;1.33;1.23;;;11.40;99.90;;;;;;5032061;28;20236;-61
2023/05/02 05:50:55;;;;;;;1.10;1.10;;;11.50;99.90;;;;;;5033898;28;20317;-62
2023/05/02 05:53:22;;;;;;;1.00;1.00;;;11.70;99.90;;;;;;5042213;28;20214;-63
2023/05/02 05:55:49;;;;;;;1.20;1.20;;;11.90;99.90;;;;;;5035699;28;20841;-62
2023/05/02 05:58:17;;;;;;;1.13;1.13;;;11.90;99.90;;;;;;5039356;28;20243;-62
2023/05/02 06:00:44;;;;;;;1.20;1.20;;;12.00;99.90;;;;;;5050847;28;20393;-62
2023/05/02 06:03:11;;;;;;;1.15;1.15;;;12.10;99.90;;;;;;5052264;28;20207;-61
2023/05/02 06:05:37;;;;;;;1.23;1.10;;;12.20;99.90;;;;;;5053300;28;20647;-62
2023/05/02 06:08:04;;;;;;;1.17;1.17;;;12.40;99.90;;;;;;5054493;28;20204;-62
2023/05/02 06:10:32;;;;;;;1.05;1.05;;;12.40;99.90;;;;;;5014584;28;1087583;-62
2023/05/02 06:12:59;;;;;;;1.20;1.20;;;12.30;99.90;;;;;;5053883;28;20230;-62
2023/05/02 06:15:27;;;;;;;1.40;1.30;;;12.30;99.90;;;;;;5053712;28;20258;-62
2023/05/02 06:17:54;;;;;;;1.13;1.10;;;12.40;99.90;;;;;;5053381;28;20203;-62
2023/05/02 06:20:20;;;;;;;1.10;1.10;;;12.50;99.90;;;;;;5056111;28;20727;-63
2023/05/02 06:22:47;;;;;;;1.17;1.17;;;12.60;99.90;;;;;;5052134;28;20227;-62
2023/05/02 06:25:14;;;;;;;1.10;1.10;;;12.70;99.90;;;;;;5054745;28;20714;-62
2023/05/02 06:27:41;;;;;;;1.10;1.10;;;12.80;99.90;;;;;;5054704;28;20694;-62
2023/05/02 06:30:09;;;;;;;1.52;1.30;;;12.90;99.90;;;;;;5054659;28;20228;-62
2023/05/02 06:32:37;;;;;;;1.13;1.10;;;13.00;99.90;;;;;;5054306;28;20235;-61
2023/05/02 06:35:04;;;;;;;1.10;1.10;;;13.10;99.90;;;;;;5054388;28;20619;-62
2023/05/02 06:37:34;;;;;;;1.30;1.30;;;13.00;99.90;;;;;;5055173;28;20204;-62
2023/05/02 06:40:01;;;;;;;1.27;1.27;;;13.20;99.90;;;;;;5054187;28;20234;-62
2023/05/02 06:42:28;;;;;;;1.10;1.10;;;13.20;99.90;;;;;;5054168;28;20236;-62
2023/05/02 06:44:55;;;;;;;1.10;1.10;;;13.30;99.90;;;;;;5054347;28;20204;-62
2023/05/02 06:47:23;;;;;;;1.10;1.10;;;13.60;99.90;;;;;;5054030;28;20818;-63
2023/05/02 06:49:51;;;;;;;1.30;1.30;;;13.70;99.90;;;;;;5053456;28;20286;-62
2023/05/02 06:52:18;;;;;;;1.27;1.27;;;13.70;99.90;;;;;;5054221;28;20204;-62
2023/05/02 06:54:45;;;;;;;1.52;1.42;;;13.70;99.90;;;;;;5053514;28;20204;-62
2023/05/02 06:57:12;;;;;;;1.40;1.40;;;13.60;99.90;;;;;;5054036;28;20258;-63
2023/05/02 06:59:40;;;;;;;1.40;1.30;;;13.70;99.90;;;;;;5054187;28;20224;-63
2023/05/02 07:02:07;;;;;;;1.73;1.63;;;13.80;99.90;;;;;;5052310;28;20230;-63
2023/05/02 07:04:33;;;;;;;1.70;1.60;;;13.90;99.90;;;;;;5052615;28;20218;-63
2023/05/02 07:07:02;;;;;;;1.60;1.50;;;13.90;99.90;;;;;;5052948;28;20207;-63
2023/05/02 07:09:29;;;;;;;1.55;1.50;;;14.10;99.90;;;;;;5052279;28;20232;-63
2023/05/02 07:11:56;;;;;;;1.63;1.52;;;14.30;99.90;;;;;;5052763;28;20204;-63
2023/05/02 07:14:23;;;;;;;1.70;1.60;;;14.40;99.90;;;;;;5052373;28;20204;-63
2023/05/02 07:16:50;;;;;;;1.90;1.80;;;14.60;99.90;;;;;;5052395;28;20210;-64
2023/05/02 07:19:16;;;;;;;1.50;1.50;;;14.70;99.90;;;;;;5051981;28;20228;-63
2023/05/02 07:21:43;;;;;;;1.43;1.40;;;14.70;99.90;;;;;;5053724;28;20235;-65
2023/05/02 07:24:11;;;;;;;1.40;1.40;;;14.80;99.90;;;;;;5053758;28;20215;-65
2023/05/02 07:26:38;;;;;;;1.50;1.50;;;14.80;99.90;;;;;;5052530;28;20578;-65
2023/05/02 07:29:07;;;;;;;1.65;1.65;;;14.80;99.90;;;;;;5052405;28;20231;-64
2023/05/02 07:31:34;;;;;;;1.48;1.48;;;14.80;99.90;;;;;;5052987;28;20269;-64
2023/05/02 07:34:01;;;;;;;1.52;1.50;;;14.90;99.90;;;;;;5052979;28;20222;-65
2023/05/02 07:36:28;;;;;;;1.50;1.50;;;14.90;99.90;;;;;;5053736;28;20649;-64
2023/05/02 07:38:54;;;;;;;1.67;1.60;;;14.90;99.90;;;;;;5052531;28;20675;-64
2023/05/02 07:41:23;;;;;;;1.58;1.55;;;15.00;99.90;;;;;;5051983;28;20211;-63
2023/05/02 07:43:50;;;;;;;1.80;1.70;;;14.80;99.90;;;;;;5052285;28;20231;-65
2023/05/02 07:46:16;;;;;;;1.80;1.70;;;14.80;99.90;;;;;;5051906;28;20200;-63
2023/05/02 07:48:43;;;;;;;1.60;1.50;;;14.90;99.90;;;;;;5052164;28;20208;-65
2023/05/02 07:51:11;;;;;;;1.90;1.80;;;14.90;99.90;;;;;;5051596;28;20219;-62
2023/05/02 07:53:38;;;;;;;1.58;1.58;;;15.00;99.90;;;;;;5052193;28;20726;-64
2023/05/02 07:56:05;;;;;;;1.90;1.80;;;14.90;99.90;;;;;;5053406;28;20204;-63
2023/05/02 07:58:34;;;;;;;1.90;1.80;;;14.90;99.90;;;;;;5056813;28;20207;-62
2023/05/02 08:01:01;;;;;;;1.80;1.70;;;14.90;99.90;;;;;;5054285;28;20228;-63
2023/05/02 08:03:28;;;;;;;1.87;1.77;;;14.90;99.90;;;;;;5052935;28;20322;-62
2023/05/02 08:05:55;;;;;;;2.30;2.10;;;15.00;99.90;;;;;;5052648;28;20662;-68
2023/05/02 08:08:23;;;;;;;2.20;2.10;;;14.90;99.90;;;;;;5052192;28;20207;-62
2023/05/02 08:10:50;;;;;;;2.40;2.30;;;14.90;99.90;;;;;;5051304;28;20315;-62
2023/05/02 08:13:17;;;;;;;2.20;2.10;;;14.70;99.90;;;;;;5052076;28;20662;-63
2023/05/02 08:15:45;;;;;;;2.13;2.03;;;14.80;99.90;;;;;;5049500;28;20225;-63
2023/05/02 08:18:12;;;;;;;2.00;1.90;;;15.00;99.90;;;;;;5051177;28;20610;-63
2023/05/02 08:20:39;;;;;;;2.00;1.90;;;15.20;99.90;;;;;;5049956;28;20710;-62
2023/05/02 08:23:06;;;;;;;2.20;2.10;;;15.20;99.90;;;;;;5051233;28;20783;-62
2023/05/02 08:25:33;;;;;;;1.88;1.80;;;15.30;99.90;;;;;;5050965;28;20200;-63
2023/05/02 08:28:00;;;;;;;2.10;2.00;;;15.60;99.90;;;;;;5052088;28;20210;-62
2023/05/02 08:30:26;;;;;;;1.92;1.83;;;15.70;99.90;;;;;;5050492;28;20316;-64
2023/05/02 08:32:55;;;;;;;1.92;1.83;;;15.80;99.90;;;;;;5050765;28;20562;-63
2023/05/02 08:35:21;;;;;;;1.90;1.80;;;16.10;99.90;;;;;;5051033;28;20298;-64
2023/05/02 08:37:48;;;;;;;1.90;1.80;;;16.00;99.90;;;;;;5051805;28;20208;-64
2023/05/02 08:40:17;;;;;;;2.17;2.08;;;16.20;99.90;;;;;;5049759;28;20231;-63
2023/05/02 08:42:44;;;;;;;2.10;2.00;;;16.60;99.90;;;;;;5049154;28;20306;-63
2023/05/02 08:45:14;;;;;;;1.60;1.60;;;16.40;99.90;;;;;;5051915;28;20286;-62
2023/05/02 08:47:42;;;;;;;1.65;1.65;;;16.10;99.90;;;;;;5051854;28;20204;-62
2023/05/02 08:50:11;;;;;;;1.80;1.70;;;16.10;99.90;;;;;;5050431;28;20228;-63
2023/05/02 08:52:38;;;;;;;2.03;1.92;;;16.50;99.90;;;;;;5050766;28;20208;-63
2023/05/02 08:55:07;;;;;;;2.05;1.73;;;16.90;99.90;;;;;;5050606;28;20302;-63
2023/05/02 08:57:34;;;;;;;1.92;1.83;;;17.10;99.90;;;;;;5050562;28;20208;-63
2023/05/02 09:00:00;;;;;;;2.00;1.90;;;17.00;99.90;;;;;;5049692;28;20228;-63
2023/05/02 09:02:42;;;;;;;2.20;2.10;;;16.80;99.90;;;;;;5050135;28;20220;-63
2023/05/02 09:05:12;;;;;;;2.10;2.00;;;16.80;99.90;;;;;;5051091;28;20195;-63
2023/05/02 09:07:46;;;;;;;2.15;2.05;;;16.90;99.90;;;;;;5051093;28;20208;-62
2023/05/02 09:10:13;;;;;;;2.20;2.10;;;16.80;99.90;;;;;;5049916;28;20246;-63
2023/05/02 09:12:39;;;;;;;1.60;1.60;;;16.70;99.90;;;;;;5050862;28;20210;-62
2023/05/02 09:15:11;;;;;;;2.40;2.30;;;17.10;99.90;;;;;;5050451;28;20207;-64
2023/05/02 09:17:42;;;;;;;1.67;1.67;;;17.30;99.90;;;;;;5050262;28;20212;-63
2023/05/02 09:20:12;;;;;;;2.30;2.20;;;17.70;99.90;;;;;;5050588;28;20232;-63
2023/05/02 09:22:39;;;;;;;2.40;2.30;;;17.70;99.90;;;;;;5050683;28;20671;-62
2023/05/02 09:25:06;;;;;;;2.47;2.35;;;17.30;99.90;;;;;;5050732;28;20203;-64
2023/05/02 09:27:49;;;;;;;2.40;2.30;;;17.10;99.90;;;;;;5050743;28;20697;-64
2023/05/02 09:30:21;;;;;;;2.25;2.05;;;17.20;99.90;;;;;;5051071;28;20224;-63
2023/05/02 09:32:50;;;;;;;2.20;2.10;;;17.60;99.90;;;;;;5051985;28;20211;-61
2023/05/02 09:35:22;;;;;;;1.90;1.80;;;17.60;99.90;;;;;;5051252;28;20231;-62
2023/05/02 09:37:51;;;;;;;2.17;2.08;;;17.50;99.90;;;;;;5050434;28;20223;-62
2023/05/02 09:40:19;;;;;;;1.90;1.80;;;17.50;99.90;;;;;;5050058;28;20224;-64
2023/05/02 09:42:46;;;;;;;2.42;2.22;;;17.90;99.90;;;;;;5050025;28;20285;-62
2023/05/02 09:45:23;;;;;;;1.83;1.80;;;18.30;99.90;;;;;;5052886;28;20204;-62
2023/05/02 09:47:53;;;;;;;2.95;2.85;;;18.50;99.90;;;;;;5059216;28;20200;-62
2023/05/02 09:50:38;;;;;;;2.60;2.50;;;17.90;99.90;;;;;;5049622;28;20224;-62
2023/05/02 09:53:06;;;;;;;2.42;2.33;;;17.50;99.90;;;;;;5068476;28;20215;-62
2023/05/02 09:55:33;;;;;;;3.00;2.47;;;17.50;99.90;;;;;;5071141;28;20784;-62
2023/05/02 09:58:00;;;;;;;2.10;2.00;;;17.70;99.90;;;;;;5055001;28;20218;-64
2023/05/02 10:00:40;;;;;;;2.25;2.15;;;18.10;99.90;;;;;;5062301;28;20214;-62
2023/05/02 10:03:08;;;;;;;2.40;2.30;;;18.50;99.90;;;;;;5055216;28;20215;-65
2023/05/02 10:05:38;;;;;;;2.90;2.70;;;18.60;99.90;;;;;;5050309;28;20674;-62
2023/05/02 10:08:07;;;;;;;2.90;2.80;;;18.60;99.90;;;;;;5050198;28;20220;-62
2023/05/02 10:10:36;;;;;;;2.90;2.80;;;18.50;99.90;;;;;;5048750;28;20331;-62
2023/05/02 10:13:05;;;;;;;2.92;2.83;;;18.50;99.90;;;;;;5049683;28;20231;-62
2023/05/02 10:15:33;;;;;;;2.63;2.53;;;18.40;99.90;;;;;;5051188;28;20200;-65
2023/05/02 10:18:01;;;;;;;2.80;2.70;;;18.40;99.90;;;;;;5049582;28;20200;-64
2023/05/02 10:20:34;;;;;;;3.00;2.80;;;18.70;99.90;;;;;;5047928;28;21067;-64
2023/05/02 10:23:02;;;;;;;2.70;2.60;;;18.70;99.90;;;;;;5049634;28;20705;-64
2023/05/02 10:25:29;;;;;;;2.88;2.78;;;18.60;99.90;;;;;;5049581;28;20208;-65
2023/05/02 10:27:57;;;;;;;2.25;2.05;;;18.70;99.90;;;;;;5049911;28;20208;-63
2023/05/02 10:30:24;;;;;;;2.90;2.80;;;19.10;99.90;;;;;;5048170;28;20245;-64
2023/05/02 10:32:53;;;;;;;3.10;3.00;;;19.40;99.90;;;;;;5050945;28;20204;-64
2023/05/02 10:35:20;;;;;;;3.10;2.90;;;19.10;99.90;;;;;;5050181;28;20677;-62
2023/05/02 10:37:48;;;;;;;3.10;2.95;;;18.80;99.90;;;;;;5053082;28;20230;-65
2023/05/02 10:40:18;;;;;;;3.05;2.95;;;18.70;99.90;;;;;;5051810;28;20216;-64
2023/05/02 10:42:50;;;;;;;2.47;2.38;;;19.00;99.90;;;;;;5052613;28;20219;-65
2023/05/02 10:45:31;;;;;;;2.80;2.70;;;19.40;99.90;;;;;;5052334;28;20322;-64
2023/05/02 10:48:15;;;;;;;3.83;3.53;;;19.80;99.90;;;;;;5052997;28;20558;-65
2023/05/02 10:50:50;;;;;;;3.38;3.28;;;19.90;99.90;;;;;;5051716;28;20220;-64
2023/05/02 10:53:43;;;;;;;2.88;2.78;;;19.50;99.90;;;;;;5050778;28;20207;-63
2023/05/02 10:56:17;;;;;;;3.30;3.20;;;19.60;99.90;;;;;;5039545;28;20207;-63
2023/05/02 10:58:44;;;;;;;3.60;3.40;;;19.60;99.90;;;;;;5053862;28;20192;-64
2023/05/02 11:01:40;;;;;;;3.50;3.40;;;19.90;99.90;;;;;;5052516;28;20244;-64
2023/05/02 11:04:09;;;;;;;3.80;3.60;;;19.70;99.90;;;;;;5052723;28;20592;-64
2023/05/02 11:06:57;;;;;;;3.50;3.30;;;19.70;99.90;;;;;;5052048;28;20246;-64
2023/05/02 11:09:33;;;;;;;3.70;3.50;;;19.30;99.90;;;;;;5051248;28;20826;-63
2023/05/02 11:12:04;;;;;;;3.97;3.78;;;19.70;99.90;;;;;;5052415;28;20203;-63
2023/05/02 11:14:46;;;;;;;4.10;3.90;;;19.90;99.90;;;;;;5051876;28;20628;-63
2023/05/02 11:17:13;;;;;;;3.80;3.60;;;19.80;99.90;;;;;;5052615;28;20690;-64
2023/05/02 11:20:28;;;;;;;4.00;3.80;;;19.80;99.90;;;;;;5053459;28;20259;-63
2023/05/02 11:23:21;;;;;;;3.95;3.75;;;19.80;99.90;;;;;;5052347;28;20278;-66
2023/05/02 11:25:49;;;;;;;3.75;3.55;;;19.60;99.90;;;;;;5045151;28;20207;-65
2023/05/02 11:28:46;;;;;;;3.70;3.50;;;19.70;99.90;;;;;;5045837;28;20291;-62
2023/05/02 11:32:01;;;;;;;3.63;3.42;;;19.60;99.90;;;;;;5025181;28;20197;-65
2023/05/02 11:34:28;;;;;;;3.50;3.30;;;19.70;99.90;;;;;;5030935;28;20189;-64
2023/05/02 11:36:55;;;;;;;3.20;3.10;;;19.50;99.90;;;;;;5032117;28;20568;-64
2023/05/02 11:39:22;;;;;;;2.90;2.80;;;19.50;99.90;;;;;;5031617;28;20230;-63
2023/05/02 11:41:49;;;;;;;2.97;2.88;;;19.70;99.90;;;;;;5032257;28;20587;-64
2023/05/02 11:44:18;;;;;;;2.90;2.80;;;19.60;99.90;;;;;;5032149;28;20239;-63
2023/05/02 11:46:45;;;;;;;3.00;2.90;;;19.80;99.90;;;;;;5031396;28;20286;-63
2023/05/02 11:49:13;;;;;;;3.10;3.00;;;19.80;99.90;;;;;;5031272;28;20224;-64
2023/05/02 11:51:39;;;;;;;2.90;2.80;;;19.90;99.90;;;;;;5032504;28;20247;-64
2023/05/02 11:54:07;;;;;;;2.50;2.40;;;19.90;99.90;;;;;;5032451;28;20247;-62
2023/05/02 11:56:34;;;;;;;2.70;2.60;;;19.70;99.90;;;;;;5032964;28;20262;-64
2023/05/02 11:59:02;;;;;;;2.35;2.25;;;19.70;99.90;;;;;;5033607;28;20213;-65
2023/05/02 12:01:30;;;;;;;2.53;2.42;;;19.60;99.90;;;;;;5035061;28;20628;-63
2023/05/02 12:04:05;;;;;;;2.60;2.50;;;19.80;99.90;;;;;;5033097;28;20569;-63
2023/05/02 12:06:33;;;;;;;2.70;2.60;;;19.90;99.90;;;;;;5029576;28;20207;-63
2023/05/02 12:09:10;;;;;;;2.65;2.55;;;20.20;99.90;;;;;;5031319;28;20224;-62
2023/05/02 12:11:37;;;;;;;2.67;2.58;;;20.10;99.90;;;;;;5031590;28;20279;-66
2023/05/02 12:14:05;;;;;;;2.53;2.42;;;20.20;99.90;;;;;;5033658;28;20202;-63
2023/05/02 12:16:33;;;;;;;2.53;2.42;;;20.20;99.90;;;;;;5033460;28;20207;-63
2023/05/02 12:19:01;;;;;;;2.22;2.13;;;20.20;99.90;;;;;;5032606;28;20228;-64
2023/05/02 12:21:31;;;;;;;2.55;2.35;;;20.20;99.90;;;;;;5031697;28;20205;-62
2023/05/02 12:23:59;;;;;;;2.85;2.75;;;20.00;99.90;;;;;;5032265;28;20286;-63
2023/05/02 12:26:28;;;;;;;2.88;2.70;;;19.90;99.90;;;;;;5032439;28;20579;-64
2023/05/02 12:28:56;;;;;;;2.40;2.30;;;20.20;99.90;;;;;;5032206;28;20221;-62
2023/05/02 12:31:24;;;;;;;2.22;2.10;;;20.40;99.90;;;;;;5030727;28;20593;-65
2023/05/02 12:33:56;;;;;;;1.80;1.70;;;20.70;99.90;;;;;;5031672;28;20294;-62
2023/05/02 12:36:23;;;;;;;1.83;1.73;;;20.70;99.90;;;;;;5031199;28;20580;-64
2023/05/02 12:38:51;;;;;;;1.90;1.80;;;20.70;99.90;;;;;;5031823;28;20271;-64
2023/05/02 12:41:19;;;;;;;1.88;1.77;;;20.50;99.90;;;;;;5031126;28;20201;-63
2023/05/02 12:43:47;;;;;;;2.88;2.78;;;20.30;99.90;;;;;;5032219;28;20255;-64
2023/05/02 12:46:14;;;;;;;2.30;2.20;;;20.20;99.90;;;;;;5031513;28;20666;-64
2023/05/02 12:48:42;;;;;;;2.17;2.08;;;20.30;99.90;;;;;;5031909;28;20303;-65
2023/05/02 12:51:21;;;;;;;2.70;2.60;;;20.60;99.90;;;;;;5032023;28;20271;-63
2023/05/02 12:53:48;;;;;;;2.80;2.65;;;20.70;99.90;;;;;;5033773;28;20195;-63
2023/05/02 12:56:15;;;;;;;2.45;2.35;;;20.50;99.90;;;;;;5033508;28;20247;-64
2023/05/02 12:58:44;;;;;;;2.28;2.17;;;20.60;99.90;;;;;;5032050;28;20204;-64